Time;durP1;ratioP1;P1;durP2;ratioP2;P2;SDS_P1;SDS_P2;PMS_P1;PMS_P2;Temp;Humidity;BMP_temperature;BMP_pressure;BME280_temperature;BME280_humidity;BME280_pressure;Samples;Min_cycle;Max_cycle;Signal;HPM_P1;HPM_P2
2022/07/10 14:45:54;;;;;;;5.22;2.70;;;;;;;27.32;46.77;99213.75;1692082;80;21375;-72
2022/07/10 14:48:21;;;;;;;3.70;2.77;;;;;;;27.63;46.85;99211.25;1695408;82;21422;-70
2022/07/10 14:50:47;;;;;;;5.10;2.92;;;;;;;27.91;45.89;99197.34;1697628;84;21015;-70
2022/07/10 14:53:15;;;;;;;3.77;2.62;;;;;;;28.10;46.28;99205.03;1697217;83;21099;-71
2022/07/10 14:55:42;;;;;;;3.80;2.52;;;;;;;28.48;46.06;99210.09;1697722;83;21067;-70
2022/07/10 14:58:09;;;;;;;5.65;3.08;;;;;;;28.91;45.19;99216.17;1697700;83;21931;-74
2022/07/10 15:00:36;;;;;;;4.05;2.80;;;;;;;29.24;43.90;99215.36;1701711;82;21517;-74
2022/07/10 15:03:03;;;;;;;4.20;3.15;;;;;;;29.26;43.19;99216.75;1710244;82;21135;-71
2022/07/10 15:05:29;;;;;;;6.47;2.80;;;;;;;29.29;43.53;99218.91;1721538;82;21051;-74
2022/07/10 15:07:56;;;;;;;4.15;2.80;;;;;;;29.44;43.29;99222.18;1694434;83;21090;-72
2022/07/10 15:10:24;;;;;;;3.77;2.65;;;;;;;29.62;43.00;99218.90;1708851;82;21935;-74
2022/07/10 15:12:51;;;;;;;3.45;2.75;;;;;;;29.87;43.12;99220.77;1700551;82;21055;-75
2022/07/10 15:15:18;;;;;;;6.53;2.72;;;;;;;30.08;42.34;99228.34;1696045;84;21181;-77
2022/07/10 15:17:45;;;;;;;3.30;2.20;;;;;;;30.21;41.80;99233.77;1701927;82;21086;-77
2022/07/10 15:20:13;;;;;;;3.65;2.33;;;;;;;30.11;41.49;99229.70;1749205;80;21501;-73
2022/07/10 15:22:39;;;;;;;4.83;3.08;;;;;;;30.11;41.49;99229.70;1762687;80;22536;-74
2022/07/10 15:25:07;;;;;;;5.03;3.45;;;;;;;30.37;41.37;99227.69;1767346;80;20986;-74
2022/07/10 15:27:33;;;;;;;3.98;3.00;;;;;;;30.57;40.93;99224.86;1712862;80;21532;-75
2022/07/10 15:30:00;;;;;;;6.97;6.33;;;;;;;30.64;40.59;99226.77;1760524;80;21466;-74
2022/07/10 15:32:27;;;;;;;5.65;4.60;;;;;;;30.58;40.42;99218.86;1748460;80;21030;-74
2022/07/10 15:34:54;;;;;;;3.05;2.60;;;;;;;30.51;40.40;99228.73;1755993;80;21835;-78
2022/07/10 15:37:22;;;;;;;17.87;5.78;;;;;;;30.56;40.42;99221.88;1748582;80;21118;-75
2022/07/10 15:39:49;;;;;;;4.25;2.80;;;;;;;30.68;40.30;99222.38;1744973;82;21024;-75
2022/07/10 15:42:16;;;;;;;3.30;2.20;;;;;;;30.72;40.00;99224.81;1746577;80;21109;-76
2022/07/10 15:44:43;;;;;;;3.42;2.37;;;;;;;30.70;40.07;99227.56;1747357;80;21071;-75
2022/07/10 15:47:11;;;;;;;3.37;2.10;;;;;;;30.60;40.67;99224.88;1732807;81;21426;-74
2022/07/10 15:49:38;;;;;;;2.67;2.33;;;;;;;30.55;40.41;99224.34;1722385;81;21195;-75
2022/07/10 15:52:05;;;;;;;3.20;2.15;;;;;;;30.55;40.09;99227.61;1720752;81;21115;-76
2022/07/10 15:54:32;;;;;;;3.72;2.30;;;;;;;30.48;40.41;99234.17;1740845;81;21021;-76
2022/07/10 15:56:59;;;;;;;3.47;2.40;;;;;;;30.47;40.67;99231.73;1767352;81;21064;-75
2022/07/10 15:59:25;;;;;;;3.65;2.65;;;;;;;30.53;40.45;99234.70;1745899;81;21829;-77
2022/07/10 16:01:54;;;;;;;2.92;2.10;;;;;;;30.55;40.72;99234.42;1738766;81;21046;-75
2022/07/10 16:04:21;;;;;;;3.75;2.40;;;;;;;30.48;40.76;99238.25;1723713;81;21010;-74
2022/07/10 16:06:49;;;;;;;3.98;2.60;;;;;;;30.48;40.85;99237.45;1746705;81;21041;-80
2022/07/10 16:09:16;;;;;;;3.30;2.33;;;;;;;30.42;41.06;99244.03;1738576;81;21137;-77
2022/07/10 16:11:43;;;;;;;4.78;2.58;;;;;;;30.31;41.35;99247.90;1762492;81;21771;-76
2022/07/10 16:14:10;;;;;;;3.30;2.55;;;;;;;30.18;41.59;99255.55;1746829;81;21019;-77
2022/07/10 16:16:37;;;;;;;3.52;2.92;;;;;;;30.08;41.83;99258.30;1706442;83;21021;-82
2022/07/10 16:19:04;;;;;;;6.67;2.85;;;;;;;29.96;41.84;99252.88;1690688;84;20998;-83
2022/07/10 16:21:35;;;;;;;3.00;2.70;;;;;;;29.90;42.22;99248.78;1695408;83;21024;-84
2022/07/10 16:24:03;;;;;;;5.15;3.30;;;;;;;29.81;42.29;99250.44;1691564;84;21779;-84
2022/07/10 16:26:32;;;;;;;6.30;4.08;;;;;;;29.72;42.00;99252.08;1688483;83;21030;-78
2022/07/10 16:28:59;;;;;;;5.37;4.37;;;;;;;29.52;42.37;99259.73;1662032;85;21068;-82
2022/07/10 16:31:25;;;;;;;6.28;3.33;;;;;;;29.27;42.74;99261.08;1661988;83;21047;-79
2022/07/10 16:33:52;;;;;;;4.72;2.70;;;;;;;28.96;43.24;99259.69;1691587;83;20994;-78
2022/07/10 16:36:18;;;;;;;5.25;2.90;;;;;;;28.75;43.88;99259.31;1685547;82;21899;-75
2022/07/10 16:38:45;;;;;;;5.12;2.67;;;;;;;28.55;44.24;99254.64;1692214;83;21031;-81
2022/07/10 16:41:12;;;;;;;4.47;3.00;;;;;;;28.28;44.61;99240.38;1678939;85;21050;-79
2022/07/10 16:43:39;;;;;;;3.45;2.70;;;;;;;28.08;45.19;99253.31;1687086;83;21036;-78
2022/07/10 16:46:05;;;;;;;4.12;3.00;;;;;;;27.90;45.50;99254.05;1732886;81;20972;-77
2022/07/10 16:48:32;;;;;;;6.83;2.98;;;;;;;27.79;45.94;99247.44;1698624;83;22680;-79
2022/07/10 16:50:59;;;;;;;7.17;3.00;;;;;;;27.60;46.29;99250.57;1655948;83;21159;-73
2022/07/10 16:53:25;;;;;;;7.78;2.87;;;;;;;27.40;46.80;99250.39;1685377;83;21053;-78
2022/07/10 16:55:54;;;;;;;3.52;2.77;;;;;;;27.20;47.28;99244.80;1687843;83;21002;-74
2022/07/10 16:58:21;;;;;;;5.50;3.12;;;;;;;27.03;47.74;99238.98;1688293;83;21085;-78
2022/07/10 17:00:47;;;;;;;4.37;2.65;;;;;;;26.81;47.86;99238.17;1629404;87;22229;-73
2022/07/10 17:03:15;;;;;;;4.70;3.10;;;;;;;26.61;48.31;99237.42;1630775;87;21146;-75
2022/07/10 17:05:42;;;;;;;3.15;2.72;;;;;;;26.58;48.53;99245.24;1672502;83;21032;-73
2022/07/10 17:08:12;;;;;;;6.30;3.92;;;;;;;26.48;48.79;99245.94;1629878;87;21104;-75
2022/07/10 17:10:41;;;;;;;3.98;3.17;;;;;;;26.33;48.95;99244.36;1653124;85;21033;-74
2022/07/10 17:13:08;;;;;;;3.08;2.70;;;;;;;26.25;49.27;99249.17;1629385;87;21817;-74
2022/07/10 17:15:37;;;;;;;4.90;3.00;;;;;;;26.21;49.49;99250.72;1684895;83;21137;-74
2022/07/10 17:18:05;;;;;;;4.05;2.85;;;;;;;26.07;49.67;99250.82;1680337;83;21555;-74
2022/07/10 17:20:33;;;;;;;5.12;3.10;;;;;;;25.97;49.98;99254.73;1681198;84;21116;-74
2022/07/10 17:23:02;;;;;;;5.08;3.20;;;;;;;25.90;50.18;99256.80;1684802;83;21137;-74
2022/07/10 17:25:30;;;;;;;5.72;2.95;;;;;;;25.82;50.46;99258.03;1676969;83;21811;-75
2022/07/10 17:27:56;;;;;;;3.60;2.80;;;;;;;25.75;50.71;99256.03;1663822;84;21065;-74
2022/07/10 17:30:24;;;;;;;5.62;3.12;;;;;;;25.65;51.02;99251.25;1683287;83;21062;-76
2022/07/10 17:32:51;;;;;;;4.40;3.02;;;;;;;25.56;51.41;99260.84;1681263;83;21017;-73
2022/07/10 17:35:18;;;;;;;3.75;2.85;;;;;;;25.47;51.68;99257.45;1676297;83;21062;-73
2022/07/10 17:37:44;;;;;;;4.17;3.00;;;;;;;25.32;51.98;99266.14;1681707;84;22623;-75
2022/07/10 17:40:12;;;;;;;4.58;2.98;;;;;;;25.22;52.27;99268.67;1684386;83;21046;-72
2022/07/10 17:42:41;;;;;;;4.90;2.87;;;;;;;25.14;52.56;99271.23;1681607;83;21586;-71
2022/07/10 17:45:09;;;;;;;4.35;3.17;;;;;;;25.06;52.77;99270.27;1693176;83;21153;-72
2022/07/10 17:47:35;;;;;;;3.58;3.17;;;;;;;24.98;53.06;99264.70;1716880;81;21072;-73
2022/07/10 17:50:04;;;;;;;6.05;3.92;;;;;;;24.91;53.34;99267.28;1728987;81;21828;-71
2022/07/10 17:52:32;;;;;;;4.83;3.70;;;;;;;24.81;53.73;99262.51;1739705;81;20993;-70
2022/07/10 17:54:59;;;;;;;6.20;3.10;;;;;;;24.74;53.96;99259.13;1745458;81;21066;-72
2022/07/10 17:57:25;;;;;;;5.95;3.40;;;;;;;24.64;54.17;99254.88;1740209;81;21047;-72
2022/07/10 17:59:52;;;;;;;5.58;3.30;;;;;;;24.53;54.27;99253.33;1737014;81;21041;-72
2022/07/10 18:02:19;;;;;;;5.05;3.17;;;;;;;24.42;54.42;99256.89;1736124;81;21812;-71
2022/07/10 18:04:46;;;;;;;4.55;3.22;;;;;;;24.30;54.68;99253.88;1729784;81;21066;-72
2022/07/10 18:07:13;;;;;;;6.50;3.50;;;;;;;24.20;54.99;99249.09;1717671;81;21043;-72
2022/07/10 18:09:40;;;;;;;4.37;3.05;;;;;;;24.10;55.37;99248.88;1743692;81;21039;-74
2022/07/10 18:12:09;;;;;;;3.60;3.22;;;;;;;23.99;55.61;99258.62;1723549;81;21105;-73
2022/07/10 18:14:36;;;;;;;5.80;3.08;;;;;;;23.88;55.97;99265.67;1742112;80;21953;-73
2022/07/10 18:17:04;;;;;;;4.90;3.30;;;;;;;23.77;56.21;99269.73;1745313;81;21084;-71
2022/07/10 18:19:30;;;;;;;5.28;3.70;;;;;;;23.68;56.54;99270.07;1740878;81;21485;-72
2022/07/10 18:21:58;;;;;;;5.80;3.50;;;;;;;23.61;56.78;99272.58;1724799;82;21482;-72
2022/07/10 18:24:24;;;;;;;4.75;3.33;;;;;;;23.54;57.06;99272.65;1741609;81;21086;-73
2022/07/10 18:26:50;;;;;;;4.20;3.40;;;;;;;23.46;57.56;99273.02;1741818;81;22219;-72
2022/07/10 18:29:17;;;;;;;4.12;3.27;;;;;;;23.39;57.93;99271.77;1734260;81;21022;-72
2022/07/10 18:31:46;;;;;;;5.53;3.62;;;;;;;23.33;58.06;99275.38;1732963;82;21366;-73
2022/07/10 18:34:29;;;;;;;6.80;5.05;;;;;;;23.26;58.38;99273.33;1739688;81;21494;-72
2022/07/10 18:37:02;;;;;;;6.67;5.17;;;;;;;23.18;58.97;99276.35;1746961;81;21486;-72
2022/07/10 18:39:28;;;;;;;5.55;3.65;;;;;;;23.11;59.29;99273.75;1747359;81;22321;-72
2022/07/10 18:41:55;;;;;;;4.67;3.65;;;;;;;23.05;59.54;99271.97;1729248;81;21376;-73
2022/07/10 18:44:22;;;;;;;5.85;3.83;;;;;;;23.01;59.55;99279.40;1744862;81;21076;-72
2022/07/10 18:46:48;;;;;;;4.90;3.30;;;;;;;22.98;59.55;99283.91;1733356;81;21644;-74
2022/07/10 18:49:16;;;;;;;10.50;3.92;;;;;;;22.94;59.80;99285.39;1703947;84;21022;-74
2022/07/10 18:51:42;;;;;;;6.42;4.03;;;;;;;22.90;60.00;99285.57;1711125;82;21911;-72
2022/07/10 18:54:09;;;;;;;5.83;4.28;;;;;;;22.88;60.09;99291.19;1716807;82;21044;-71
2022/07/10 18:56:36;;;;;;;6.47;3.62;;;;;;;22.87;60.16;99295.42;1721544;82;21027;-72
2022/07/10 18:59:03;;;;;;;7.17;3.47;;;;;;;22.88;60.17;99307.87;1732759;82;21525;-72
2022/07/10 19:01:32;;;;;;;5.83;4.17;;;;;;;22.84;60.26;99305.61;1710818;82;21006;-73
2022/07/10 19:04:00;;;;;;;3.90;3.40;;;;;;;22.81;60.31;99307.39;1708527;82;21866;-74
2022/07/10 19:06:27;;;;;;;4.72;3.65;;;;;;;22.78;60.38;99301.13;1725102;81;21112;-74
2022/07/10 19:08:55;;;;;;;4.92;3.70;;;;;;;22.76;60.41;99303.20;1735535;82;21496;-72
2022/07/10 19:11:22;;;;;;;4.58;3.50;;;;;;;22.73;60.41;99307.70;1726309;82;21147;-74
2022/07/10 19:13:49;;;;;;;4.33;3.40;;;;;;;22.70;60.42;99309.50;1698631;82;21055;-75
2022/07/10 19:16:16;;;;;;;5.75;3.80;;;;;;;22.66;60.44;99308.30;1708784;82;21964;-74
2022/07/10 19:18:45;;;;;;;5.03;3.55;;;;;;;22.63;60.58;99312.80;1705795;82;21074;-74
2022/07/10 19:21:12;;;;;;;5.42;3.80;;;;;;;22.60;60.80;99318.64;1704918;82;21114;-75
2022/07/10 19:23:39;;;;;;;6.05;4.08;;;;;;;22.59;61.07;99312.14;1714940;82;21517;-74
2022/07/10 19:26:05;;;;;;;6.35;3.87;;;;;;;22.55;61.18;99315.78;1692808;84;21004;-74
2022/07/10 19:28:32;;;;;;;5.12;3.87;;;;;;;22.51;61.48;99312.73;1688751;82;22324;-74
2022/07/10 19:30:58;;;;;;;5.90;3.67;;;;;;;22.45;61.68;99310.11;1724389;82;21023;-74
2022/07/10 19:33:25;;;;;;;4.05;3.65;;;;;;;22.38;61.78;99309.36;1733416;82;21030;-74
2022/07/10 19:35:53;;;;;;;6.20;3.72;;;;;;;22.38;61.82;99320.94;1725645;81;21522;-74
2022/07/10 19:38:25;;;;;;;5.15;3.52;;;;;;;22.38;61.83;99319.59;1732290;82;21017;-74
2022/07/10 19:40:48;;;;;;;5.85;3.50;;;;;;;22.36;62.04;99310.11;1720354;80;21771;-73
2022/07/10 19:43:14;;;;;;;7.00;3.45;;;;;;;22.31;62.09;99308.63;1707600;81;21034;-76
2022/07/10 19:45:41;;;;;;;13.00;11.63;;;;;;;22.26;62.08;99299.34;1703369;82;21479;-75
2022/07/10 19:48:09;;;;;;;5.83;3.55;;;;;;;22.26;62.06;99307.41;1727312;81;21996;-76
2022/07/10 19:50:36;;;;;;;5.47;3.42;;;;;;;22.26;62.19;99306.07;1750962;81;21029;-74
2022/07/10 19:53:04;;;;;;;6.12;3.42;;;;;;;22.18;62.38;99300.16;1762249;81;21929;-74
2022/07/10 19:55:30;;;;;;;6.03;3.45;;;;;;;22.11;62.39;99298.91;1745941;81;21043;-73
2022/07/10 19:57:57;;;;;;;4.20;3.70;;;;;;;22.05;62.59;99290.34;1731963;81;21483;-74
2022/07/10 20:00:24;;;;;;;4.55;3.33;;;;;;;22.03;62.61;99295.65;1731966;81;21039;-75
2022/07/10 20:02:52;;;;;;;5.78;3.70;;;;;;;22.02;62.65;99301.55;1715448;82;21043;-71
2022/07/10 20:05:18;;;;;;;4.67;3.83;;;;;;;21.99;62.72;99292.56;1738436;82;22320;-72
2022/07/10 20:07:45;;;;;;;4.53;3.40;;;;;;;21.98;62.71;99301.16;1743936;81;21028;-72
2022/07/10 20:10:11;;;;;;;4.50;3.45;;;;;;;21.95;62.81;99294.88;1728407;81;21071;-71
2022/07/10 20:12:38;;;;;;;5.05;3.60;;;;;;;21.91;62.90;99300.94;1738404;82;21031;-71
2022/07/10 20:15:07;;;;;;;5.17;3.37;;;;;;;21.88;63.04;99304.05;1732894;81;21567;-73
2022/07/10 20:17:35;;;;;;;5.97;3.60;;;;;;;21.85;63.12;99308.53;1730184;81;21839;-74
2022/07/10 20:20:01;;;;;;;5.85;3.50;;;;;;;21.81;63.31;99314.88;1739605;81;21086;-73
2022/07/10 20:22:28;;;;;;;4.70;3.58;;;;;;;21.76;63.44;99316.58;1748295;81;21003;-74
2022/07/10 20:24:55;;;;;;;6.08;3.65;;;;;;;21.74;63.45;99320.83;1744378;81;21062;-74
2022/07/10 20:27:21;;;;;;;4.50;3.77;;;;;;;21.70;63.64;99317.73;1738745;81;20946;-75
2022/07/10 20:29:48;;;;;;;3.72;3.20;;;;;;;21.67;63.73;99310.13;1738663;81;21940;-74
2022/07/10 20:32:15;;;;;;;6.53;3.75;;;;;;;21.64;63.92;99307.06;1735248;81;21095;-75
2022/07/10 20:34:42;;;;;;;4.25;3.27;;;;;;;21.60;63.98;99309.34;1738142;81;21069;-74
2022/07/10 20:39:57;;;;;;;4.85;3.33;;;;;;;21.56;64.09;99304.64;1738872;81;21007;-75
2022/07/10 20:42:25;;;;;;;6.70;3.22;;;;;;;21.54;64.32;99304.05;1739278;81;21818;-74
2022/07/10 20:44:53;;;;;;;4.40;3.35;;;;;;;21.48;64.75;99299.02;1740395;79;20933;-75
2022/07/10 20:47:20;;;;;;;5.50;3.17;;;;;;;21.40;64.97;99300.09;1737343;81;21664;-75
2022/07/10 20:49:47;;;;;;;4.12;2.95;;;;;;;21.32;65.02;99300.88;1711088;82;21537;-75
2022/07/10 20:52:14;;;;;;;3.83;3.10;;;;;;;21.25;65.36;99295.55;1704801;82;21005;-74
2022/07/10 20:54:41;;;;;;;5.20;3.12;;;;;;;21.17;65.54;99282.90;1698170;80;21776;-75
2022/07/10 20:57:07;;;;;;;4.37;2.85;;;;;;;21.07;65.66;99278.00;1724938;82;21003;-75
2022/07/10 20:59:35;;;;;;;5.65;3.15;;;;;;;21.01;65.81;99272.97;1712738;82;21008;-75
2022/07/10 21:02:03;;;;;;;4.37;3.25;;;;;;;20.96;65.95;99274.67;1719765;82;21019;-75
2022/07/10 21:04:30;;;;;;;3.75;2.87;;;;;;;20.91;66.05;99273.95;1736132;82;21015;-74
2022/07/10 21:06:57;;;;;;;4.47;3.00;;;;;;;20.87;66.27;99279.47;1712235;82;22233;-75
2022/07/10 21:09:24;;;;;;;3.12;2.70;;;;;;;20.82;66.42;99272.04;1718234;81;21080;-75
2022/07/10 21:11:51;;;;;;;5.20;3.30;;;;;;;20.78;66.54;99283.44;1700468;82;20981;-74
2022/07/10 21:14:18;;;;;;;4.35;3.00;;;;;;;20.75;66.69;99275.79;1723827;81;20987;-74
2022/07/10 21:16:45;;;;;;;5.30;3.35;;;;;;;20.72;66.83;99282.94;1733234;82;20932;-75
2022/07/10 21:19:12;;;;;;;3.05;2.75;;;;;;;20.69;66.83;99282.03;1743275;81;21796;-75
2022/07/10 21:21:38;;;;;;;4.40;3.10;;;;;;;20.70;67.24;99274.28;1708683;82;20902;-75
2022/07/10 21:24:05;;;;;;;4.35;3.45;;;;;;;20.65;67.24;99273.56;1716209;82;21086;-75
2022/07/10 21:26:32;;;;;;;4.40;2.87;;;;;;;20.62;67.46;99275.87;1719118;82;20968;-75
2022/07/10 21:29:00;;;;;;;5.90;3.35;;;;;;;20.58;67.62;99272.80;1712934;82;21063;-76
2022/07/10 21:31:28;;;;;;;4.10;3.15;;;;;;;20.56;67.76;99267.65;1712827;82;22656;-74
2022/07/10 21:33:54;;;;;;;3.52;3.10;;;;;;;20.55;67.91;99271.34;1709825;82;21011;-74
2022/07/10 21:36:21;;;;;;;3.87;3.30;;;;;;;20.52;68.09;99270.44;1700519;82;21084;-74
2022/07/10 21:38:48;;;;;;;4.35;3.35;;;;;;;20.50;68.21;99273.03;1681627;82;21125;-75
2022/07/10 21:41:15;;;;;;;3.70;2.77;;;;;;;20.44;68.38;99269.33;1710033;82;20968;-75
2022/07/10 21:43:42;;;;;;;6.75;3.30;;;;;;;20.40;68.48;99279.34;1716603;82;21742;-75
2022/07/10 21:46:09;;;;;;;3.45;3.00;;;;;;;20.32;68.60;99268.84;1720542;82;20995;-74
2022/07/10 21:48:35;;;;;;;3.05;2.67;;;;;;;20.21;68.63;99260.94;1724614;80;20934;-74
2022/07/10 21:51:02;;;;;;;4.72;2.92;;;;;;;20.15;68.67;99258.57;1732688;80;21534;-74
2022/07/10 21:53:29;;;;;;;3.00;2.70;;;;;;;20.10;68.64;99257.05;1741365;80;21011;-74
2022/07/10 21:55:55;;;;;;;4.92;2.80;;;;;;;20.00;68.66;99247.29;1717299;82;21904;-73
2022/07/10 21:58:22;;;;;;;5.40;2.85;;;;;;;19.95;68.71;99242.54;1744518;80;20952;-74
2022/07/10 22:00:49;;;;;;;3.90;2.60;;;;;;;19.88;68.70;99244.44;1736003;80;21014;-74
2022/07/10 22:03:16;;;;;;;3.02;2.50;;;;;;;19.83;68.75;99250.10;1742567;80;21258;-74
2022/07/10 22:05:43;;;;;;;2.87;2.40;;;;;;;19.77;68.75;99243.70;1746936;80;21079;-74
2022/07/10 22:08:10;;;;;;;2.85;2.52;;;;;;;19.75;68.75;99252.48;1759316;80;22778;-74
2022/07/10 22:10:37;;;;;;;6.00;2.70;;;;;;;19.74;68.83;99244.13;1741723;80;20995;-74
2022/07/10 22:13:05;;;;;;;2.83;2.37;;;;;;;19.70;68.83;99246.42;1730446;80;21458;-78
2022/07/10 22:15:31;;;;;;;4.22;2.55;;;;;;;19.69;68.79;99247.97;1742658;80;20984;-75
2022/07/10 22:18:12;;;;;;;3.60;2.55;;;;;;;19.68;68.76;99250.31;1746176;80;21075;-75
2022/07/10 22:20:39;;;;;;;5.22;2.60;;;;;;;19.66;68.75;99255.89;1743454;80;21926;-74
2022/07/10 22:23:07;;;;;;;3.87;2.55;;;;;;;19.65;68.75;99254.76;1730448;80;21522;-75
2022/07/10 22:25:34;;;;;;;6.45;2.67;;;;;;;19.63;68.75;99244.25;1728198;80;21024;-75
2022/07/10 22:28:01;;;;;;;4.50;2.37;;;;;;;19.61;68.83;99246.33;1747750;80;21404;-75
2022/07/10 22:33:13;;;;;;;3.95;2.50;;;;;;;19.53;69.11;99255.88;1747817;80;21948;-75
2022/07/10 22:35:40;;;;;;;3.20;2.58;;;;;;;19.46;69.30;99260.41;1749978;80;21056;-75
2022/07/10 22:38:07;;;;;;;3.35;2.65;;;;;;;19.40;69.48;99268.77;1753889;80;21009;-74
2022/07/10 22:40:35;;;;;;;2.87;2.30;;;;;;;19.34;69.72;99274.11;1749881;80;20993;-77
2022/07/10 22:43:02;;;;;;;3.58;2.50;;;;;;;19.28;69.81;99283.77;1752232;80;20998;-75
2022/07/10 22:45:29;;;;;;;3.90;2.52;;;;;;;19.30;69.94;99283.55;1744181;80;22312;-75
2022/07/10 22:47:55;;;;;;;3.27;2.52;;;;;;;19.28;70.00;99285.10;1740369;80;20949;-76
2022/07/10 22:50:22;;;;;;;2.85;2.40;;;;;;;19.27;70.00;99286.13;1715444;82;21008;-74
2022/07/10 22:52:48;;;;;;;3.27;2.67;;;;;;;19.28;70.03;99285.62;1708900;83;21001;-74
2022/07/10 22:55:15;;;;;;;3.77;2.80;;;;;;;19.25;70.17;99292.22;1718136;81;20993;-76
2022/07/10 22:57:42;;;;;;;3.50;2.45;;;;;;;19.25;70.17;99289.53;1721882;82;21938;-75
2022/07/10 23:00:11;;;;;;;2.58;2.35;;;;;;;19.25;70.23;99283.36;1685185;83;40087;-75
2022/07/10 23:02:38;;;;;;;3.80;2.90;;;;;;;19.24;70.31;99284.39;1706869;82;21038;-75
2022/07/10 23:05:05;;;;;;;3.75;2.50;;;;;;;19.21;70.37;99283.47;1726525;82;20952;-77
2022/07/10 23:07:33;;;;;;;3.83;2.75;;;;;;;19.18;70.64;99290.03;1727437;81;21015;-75
2022/07/10 23:09:59;;;;;;;3.12;2.77;;;;;;;19.13;70.78;99285.31;1710108;82;21451;-76
2022/07/10 23:12:27;;;;;;;4.33;2.80;;;;;;;19.11;70.92;99291.38;1699068;82;21027;-75
2022/07/10 23:14:54;;;;;;;4.55;2.95;;;;;;;19.10;71.02;99287.03;1709900;82;21020;-74
2022/07/10 23:17:21;;;;;;;4.00;2.80;;;;;;;19.10;71.18;99284.35;1722561;82;21015;-76
2022/07/10 23:19:48;;;;;;;3.75;2.90;;;;;;;19.09;71.23;99277.87;1716492;82;21026;-75
2022/07/10 23:22:15;;;;;;;3.92;3.00;;;;;;;19.09;71.34;99279.20;1707404;82;22880;-75
2022/07/10 23:24:43;;;;;;;4.95;3.00;;;;;;;19.11;71.30;99284.69;1711394;82;21485;-76
2022/07/10 23:27:10;;;;;;;3.30;2.70;;;;;;;19.12;71.21;99276.97;1733540;81;21030;-75
2022/07/10 23:29:36;;;;;;;3.65;2.62;;;;;;;19.15;71.27;99279.74;1724158;82;21004;-77
2022/07/10 23:32:04;;;;;;;4.47;2.87;;;;;;;19.15;71.27;99281.08;1718305;82;21075;-74
2022/07/10 23:34:30;;;;;;;3.62;2.75;;;;;;;19.11;71.41;99287.37;1709333;82;21971;-74
2022/07/10 23:36:58;;;;;;;3.42;3.08;;;;;;;19.09;71.65;99279.20;1711694;82;20928;-75
2022/07/10 23:39:27;;;;;;;5.33;2.87;;;;;;;19.05;71.73;99276.13;1697980;82;21047;-74
2022/07/10 23:41:54;;;;;;;3.87;2.67;;;;;;;19.05;71.82;99274.79;1704561;82;21010;-75
2022/07/10 23:44:20;;;;;;;4.58;2.95;;;;;;;19.06;71.96;99270.26;1713716;82;21004;-75
2022/07/10 23:46:47;;;;;;;5.10;3.02;;;;;;;19.05;72.04;99275.30;1725634;82;21966;-76
2022/07/10 23:51:59;;;;;;;4.35;3.40;;;;;;;19.00;72.34;99267.87;1724850;80;21519;-74
2022/07/10 23:54:26;;;;;;;3.85;3.08;;;;;;;18.94;72.55;99259.84;1717890;82;20982;-74
2022/07/10 23:56:52;;;;;;;4.00;3.10;;;;;;;18.93;72.72;99264.89;1729748;82;20964;-74
2022/07/10 23:59:20;;;;;;;4.50;3.30;;;;;;;18.90;72.87;99264.76;1722389;83;21083;-75
